CheckWX is a tool to help pilots better visualize weather data.  It is not intended as a substitute for an official pre-flight weather briefing.

05:57:57 UTC

RKSO TAF
Osan Air Base Airport
South Korea
TAF RKSO 210100Z 2101/2207 07009KT 9999 BKN180 QNH3045INS BECMG 2111/2112 09009KT 9999 FEW050 SCT060 BKN100 QNH3040INS BECMG 2117/2118 09006KT 9999 FEW110 SCT120 QNH3029INS TX06/2106Z TN02/2122Z

Nov-21@
01:00 UTC

Nov-21 @ 01:00 UTC

Nov-21@
11:00 UTC

Nov-21 @ 11:00 UTC

TAF RKSO 210100Z 2101/2207 07009KT 9999 BKN180 QNH3045INS
Wind
  • 070° at 9 KTS
Cloud Levels
  • Broken at 18,000' AGL

Nov-21@
11:00 UTC

Nov-21 @ 11:00 UTC

Nov-21@
17:00 UTC

Nov-21 @ 17:00 UTC

BECMG 2111/2112 09009KT 9999 FEW050 SCT060 BKN100 QNH3040INS

Becoming

Becoming Conditions expected by Thu, Nov 21, 2019 @ 12:00 UTC

Wind
  • 090° at 9 KTS
Cloud Levels
  • Few at 5,000' AGL
  • Scattered at 6,000' AGL
  • Broken at 10,000' AGL

Nov-21@
17:00 UTC

Nov-21 @ 17:00 UTC

Nov-22@
07:00 UTC

Nov-22 @ 07:00 UTC

BECMG 2117/2118 09006KT 9999 FEW110 SCT120 QNH3029INS TX06/2106Z TN02/2122Z

Becoming

Becoming Conditions expected by Thu, Nov 21, 2019 @ 18:00 UTC

Wind
  • 090° at 6 KTS
Cloud Levels
  • Few at 11,000' AGL
  • Scattered at 12,000' AGL